Canefield Airport

Partly cloudy and hazy
29oC (84oF)

Partly cloudy and hazy


Winds: South easterly @ 04kts / 07km/h

Humidity: 60%

Barometric Pressure: 1015 mb

Accumulated Rainfall for July: 122.7 mm

Updated: 20:00 local time (00:00 UTC)

Douglas-Charles Airport

Partly cloudy and slightly hazy with adjacent showers
28oC (82oF)

Partly cloudy and slightly hazy with adjacent showers


Winds: South easterly @ 04kts / 07km/h

Humidity: 84%

Barometric Pressure: 1017 mb

Accumulated Rainfall for July: 117.7 mm

Updated: 20:00 local time (00:00 UTC)

Satellite Imagery

Satellite Imagery
Click image for larger view. (Source: National Hurricane Center).

Aviation Routine Report (METAR)

Douglas-Charles: METAR TDPD 250000Z 13004KT 9999 BKN017 28/25 Q1017=
Canefield: METAR TDCF 250000Z 14004KT 9999 SCTO15 29/21 Q1015=